Time;durP1;ratioP1;P1;durP2;ratioP2;P2;SDS_P1;SDS_P2;PMS_P1;PMS_P2;Temp;Humidity;BMP_temperature;BMP_pressure;BME280_temperature;BME280_humidity;BME280_pressure;Samples;Min_cycle;Max_cycle;Signal;HPM_P1;HPM_P2
2023/06/19 00:00:30;;;;;;;8.13;6.45;;;;;;;25.16;46.11;99972.63;4128697;28;20035;-68
2023/06/19 00:02:32;;;;;;;7.95;5.88;;;;;;;25.13;46.09;99978.13;4129394;28;20050;-68
2023/06/19 00:04:35;;;;;;;11.50;6.95;;;;;;;25.11;46.15;99978.22;4128601;28;20042;-67
2023/06/19 00:06:38;;;;;;;12.80;6.35;;;;;;;25.11;45.56;99980.03;4129341;28;20065;-67
2023/06/19 00:08:42;;;;;;;9.50;6.07;;;;;;;25.12;45.57;99984.41;4127047;28;20038;-68
2023/06/19 00:10:45;;;;;;;9.90;6.90;;;;;;;25.14;45.25;99987.84;4129781;28;20073;-67
2023/06/19 00:12:49;;;;;;;10.43;7.03;;;;;;;25.14;45.28;99977.19;4128051;28;20064;-67
2023/06/19 00:14:52;;;;;;;9.00;5.93;;;;;;;25.12;45.39;99976.44;4128980;28;20037;-67
2023/06/19 00:16:55;;;;;;;10.40;7.07;;;;;;;25.06;45.16;99978.47;4127673;28;20038;-67
2023/06/19 00:18:57;;;;;;;8.55;6.10;;;;;;;25.05;45.09;99976.75;4127602;28;20042;-67
2023/06/19 00:21:00;;;;;;;10.02;6.30;;;;;;;25.04;45.21;99977.69;4125038;28;20069;-67
2023/06/19 00:23:03;;;;;;;10.13;6.60;;;;;;;25.03;45.43;99991.94;4124384;28;20043;-67
2023/06/19 00:25:06;;;;;;;10.80;6.13;;;;;;;24.98;45.45;99990.47;4128670;28;20038;-67
2023/06/19 00:27:09;;;;;;;12.18;6.93;;;;;;;24.92;45.18;100005.78;4125132;28;20077;-67
2023/06/19 00:29:13;;;;;;;10.15;6.88;;;;;;;24.88;45.06;100006.03;4125354;28;20049;-68
2023/06/19 00:31:16;;;;;;;;;;;;;;;24.79;45.67;99999.41;4128205;28;20532;-67
2023/06/19 00:33:19;;;;;;;9.07;6.03;;;;;;;24.77;46.47;100000.44;4141803;28;19961;-67
2023/06/19 00:35:22;;;;;;;13.40;6.90;;;;;;;24.85;48.16;100001.75;4129575;28;20046;-67
2023/06/19 00:37:25;;;;;;;8.43;6.63;;;;;;;24.79;48.78;100001.19;4130568;28;20066;-67
2023/06/19 00:39:29;;;;;;;8.47;6.80;;;;;;;24.73;49.05;99995.25;4131539;28;20089;-67
2023/06/19 00:41:34;;;;;;;8.25;6.05;;;;;;;24.70;49.11;99997.22;4128636;28;20040;-67
2023/06/19 00:43:37;;;;;;;14.88;7.57;;;;;;;24.66;48.62;99995.66;4147144;28;20050;-67
2023/06/19 00:45:42;;;;;;;9.35;7.50;;;;;;;24.61;48.43;99998.56;4130625;28;20062;-67
2023/06/19 00:47:46;;;;;;;10.93;6.88;;;;;;;24.55;48.07;99983.75;4130731;28;20052;-67
2023/06/19 00:49:50;;;;;;;7.47;6.18;;;;;;;24.45;48.06;99987.81;4131051;28;20531;-67
2023/06/19 00:51:54;;;;;;;11.95;7.82;;;;;;;24.36;47.82;99994.47;4144155;28;20491;-67
2023/06/19 00:53:57;;;;;;;10.50;6.97;;;;;;;24.34;47.75;100006.09;4128335;28;20065;-67
2023/06/19 00:56:01;;;;;;;9.02;6.93;;;;;;;24.30;47.73;100005.41;4130274;28;20034;-67
2023/06/19 00:58:05;;;;;;;9.73;7.10;;;;;;;24.31;47.85;100007.16;4130421;28;20495;-67
2023/06/19 01:00:12;;;;;;;13.07;7.15;;;;;;;24.30;48.40;100005.41;4128903;28;20061;-67
2023/06/19 01:02:17;;;;;;;15.65;7.63;;;;;;;24.33;48.94;100002.59;4145982;28;20038;-67
2023/06/19 01:04:25;;;;;;;8.85;7.18;;;;;;;24.23;49.94;100004.00;4126631;28;20455;-67
2023/06/19 01:06:37;;;;;;;8.27;6.60;;;;;;;24.17;50.42;100014.94;4109516;28;20082;-67
2023/06/19 01:08:51;;;;;;;11.60;6.93;;;;;;;24.08;49.78;100026.00;4128125;28;20035;-68
2023/06/19 01:11:02;;;;;;;7.57;6.32;;;;;;;24.02;49.92;100054.59;4128043;28;20034;-67
2023/06/19 01:13:29;;;;;;;11.68;7.35;;;;;;;23.96;48.67;100046.03;4128814;28;20121;-67
2023/06/19 01:15:33;;;;;;;8.48;6.72;;;;;;;23.94;48.55;100042.63;4112015;28;20098;-67
2023/06/19 01:17:38;;;;;;;8.20;6.10;;;;;;;24.00;47.96;100045.81;4129786;28;20103;-67
2023/06/19 01:19:41;;;;;;;8.30;6.78;;;;;;;24.06;47.36;100031.38;4128394;28;20093;-68
2023/06/19 01:21:44;;;;;;;8.23;6.22;;;;;;;24.14;46.37;100031.88;4129552;28;20031;-67
2023/06/19 01:23:49;;;;;;;9.60;6.40;;;;;;;24.19;46.37;100036.97;4130725;28;21421;-67
2023/06/19 01:25:52;;;;;;;8.82;7.25;;;;;;;24.19;46.96;100035.16;4129148;28;20733;-67
2023/06/19 01:27:55;;;;;;;8.80;6.18;;;;;;;24.24;47.48;100034.94;4127188;28;20072;-67
2023/06/19 01:29:59;;;;;;;13.05;6.85;;;;;;;24.26;47.82;100046.34;4128959;28;20121;-67
2023/06/19 01:32:09;;;;;;;8.63;6.85;;;;;;;24.26;47.76;100051.66;4127416;28;20035;-67
2023/06/19 01:34:15;;;;;;;9.15;6.75;;;;;;;24.20;47.27;100055.47;4130931;28;20054;-67
2023/06/19 01:36:21;;;;;;;7.55;6.50;;;;;;;24.22;47.49;100055.41;4128571;28;20088;-67
2023/06/19 01:38:26;;;;;;;10.57;6.97;;;;;;;24.20;47.36;100057.28;4130767;28;20076;-67
2023/06/19 01:40:32;;;;;;;9.32;7.05;;;;;;;24.17;46.45;100063.59;4130823;28;21232;-67
2023/06/19 01:42:37;;;;;;;11.50;6.93;;;;;;;24.14;46.76;100055.78;4128892;28;20050;-67
2023/06/19 01:44:41;;;;;;;9.15;6.45;;;;;;;24.12;45.09;100054.97;4142204;28;20038;-67
2023/06/19 01:46:44;;;;;;;10.80;6.03;;;;;;;24.21;44.84;100054.53;4142727;28;20038;-67
2023/06/19 01:49:08;;;;;;;8.93;5.57;;;;;;;24.30;44.39;100063.84;4130931;28;20053;-67
2023/06/19 01:51:12;;;;;;;10.70;5.45;;;;;;;24.43;44.02;100064.13;4128520;28;20034;-67
2023/06/19 01:53:15;;;;;;;10.45;5.13;;;;;;;24.49;43.91;100062.97;4129636;28;20038;-67
2023/06/19 01:55:18;;;;;;;11.60;5.28;;;;;;;24.53;44.08;100070.69;4129802;28;20053;-67
2023/06/19 01:57:22;;;;;;;10.15;4.97;;;;;;;24.63;44.18;100071.09;4142241;28;20038;-67
2023/06/19 01:59:25;;;;;;;;;;;;;;;24.64;44.25;100067.50;4143489;28;20033;-67
2023/06/19 02:01:28;;;;;;;10.43;5.57;;;;;;;24.70;44.27;100063.69;4141829;28;20375;-68
2023/06/19 02:03:30;;;;;;;8.60;4.97;;;;;;;24.73;44.32;100069.69;4130021;28;20035;-67
2023/06/19 02:05:39;;;;;;;8.48;4.93;;;;;;;24.79;44.26;100067.66;4125843;28;20034;-67
2023/06/19 02:07:42;;;;;;;10.52;5.35;;;;;;;24.86;44.21;100071.75;4144361;28;20034;-68
2023/06/19 02:09:44;;;;;;;8.85;5.70;;;;;;;24.83;43.61;100067.44;4127843;28;20042;-67
2023/06/19 02:11:47;;;;;;;9.13;5.63;;;;;;;24.81;43.55;100074.63;4129478;28;20142;-67
2023/06/19 02:13:52;;;;;;;8.57;6.47;;;;;;;24.78;43.54;100071.25;4127281;28;20500;-67
2023/06/19 02:15:54;;;;;;;9.20;6.57;;;;;;;24.74;43.55;100076.72;4127477;28;20045;-67
2023/06/19 02:18:00;;;;;;;8.23;6.13;;;;;;;24.66;43.75;100081.59;4124485;28;20133;-67
2023/06/19 02:20:05;;;;;;;9.15;6.38;;;;;;;24.63;43.86;100075.56;4128370;28;20042;-67
2023/06/19 02:22:08;;;;;;;7.97;5.43;;;;;;;24.53;44.26;100076.00;4129415;28;20027;-67
2023/06/19 02:24:11;;;;;;;8.05;6.00;;;;;;;24.61;44.11;100080.97;4129048;28;20042;-67
2023/06/19 02:26:14;;;;;;;7.82;5.28;;;;;;;24.51;44.57;100088.50;4128950;28;20077;-67
2023/06/19 02:28:17;;;;;;;6.38;5.45;;;;;;;24.53;44.90;100091.06;4129264;28;20057;-67
2023/06/19 02:30:21;;;;;;;8.73;5.82;;;;;;;24.63;44.61;100087.03;4141819;28;20077;-67
2023/06/19 02:32:24;;;;;;;11.65;6.07;;;;;;;24.43;45.04;100089.81;4129351;28;20448;-67
2023/06/19 02:34:27;;;;;;;6.45;5.30;;;;;;;24.34;45.35;100097.31;4135058;28;20467;-67
2023/06/19 02:36:30;;;;;;;8.13;5.50;;;;;;;24.29;45.76;100104.63;4126510;28;20038;-67
2023/06/19 02:38:33;;;;;;;9.48;6.28;;;;;;;24.32;45.62;100101.81;4130724;28;20045;-68
2023/06/19 02:40:36;;;;;;;9.27;5.10;;;;;;;24.29;45.84;100104.63;4145416;28;20048;-68
2023/06/19 02:42:39;;;;;;;6.85;5.38;;;;;;;24.28;46.26;100108.22;4129664;28;20400;-68
2023/06/19 02:44:42;;;;;;;8.45;5.18;;;;;;;24.27;46.18;100114.50;4126282;28;20038;-68
2023/06/19 02:46:46;;;;;;;10.18;5.53;;;;;;;24.23;46.49;100115.56;4127330;28;20049;-68
2023/06/19 02:48:49;;;;;;;;;;;;;;;24.24;46.83;100119.94;4111109;28;20043;-68
2023/06/19 02:50:52;;;;;;;7.95;4.90;;;;;;;24.18;46.94;100120.22;4126275;28;19968;-68
2023/06/19 02:52:55;;;;;;;10.68;5.05;;;;;;;24.24;47.28;100106.66;4128991;28;20054;-68
2023/06/19 02:54:58;;;;;;;6.32;5.28;;;;;;;24.21;47.39;100099.69;4126370;28;20129;-68
2023/06/19 02:57:01;;;;;;;7.63;5.13;;;;;;;24.17;47.61;100110.56;4128730;28;20068;-67
2023/06/19 02:59:04;;;;;;;4.88;4.18;;;;;;;24.14;47.80;100123.97;4144295;28;20399;-68
2023/06/19 03:01:08;;;;;;;5.45;3.80;;;;;;;23.92;48.57;100145.34;4129080;28;20035;-68
2023/06/19 03:03:13;;;;;;;7.38;3.70;;;;;;;23.78;49.08;100167.22;4126848;28;20034;-68
2023/06/19 03:05:16;;;;;;;5.72;3.33;;;;;;;23.75;49.65;100167.34;4107059;28;20102;-68
2023/06/19 03:07:19;;;;;;;6.50;3.78;;;;;;;23.68;49.95;100162.31;4143536;28;20049;-67
2023/06/19 03:09:22;;;;;;;5.65;3.75;;;;;;;23.75;50.35;100164.69;4142583;28;20048;-67
2023/06/19 03:11:25;;;;;;;5.55;3.50;;;;;;;23.65;50.76;100164.25;4138030;28;20108;-67
2023/06/19 03:13:28;;;;;;;5.13;3.35;;;;;;;23.67;51.10;100165.91;4126008;28;20046;-67
2023/06/19 03:15:31;;;;;;;4.82;3.53;;;;;;;23.61;51.54;100171.50;4126833;28;20044;-68
2023/06/19 03:17:34;;;;;;;5.72;4.05;;;;;;;23.59;51.83;100177.78;4134133;28;20030;-67
2023/06/19 03:19:39;;;;;;;4.22;3.42;;;;;;;23.56;52.44;100178.78;4111084;28;20055;-68
2023/06/19 03:21:42;;;;;;;5.40;3.95;;;;;;;23.49;52.80;100177.31;4111090;28;20153;-68
2023/06/19 03:23:46;;;;;;;5.20;3.93;;;;;;;23.40;53.14;100178.59;4128237;28;20045;-68
2023/06/19 03:25:49;;;;;;;5.73;4.23;;;;;;;23.35;53.64;100180.59;4128549;28;20117;-68
2023/06/19 03:27:52;;;;;;;4.90;3.50;;;;;;;23.22;54.11;100187.34;4137609;28;20297;-68
2023/06/19 03:29:58;;;;;;;6.90;3.75;;;;;;;23.19;54.33;100198.97;4109866;28;20038;-68
2023/06/19 03:32:10;;;;;;;8.55;3.78;;;;;;;23.20;54.70;100198.00;4127289;28;20046;-67
2023/06/19 03:34:13;;;;;;;5.25;3.30;;;;;;;23.19;54.73;100201.63;4111669;28;20047;-68
2023/06/19 03:36:17;;;;;;;6.47;3.70;;;;;;;23.17;55.19;100198.16;4129942;28;20038;-67
2023/06/19 03:38:25;;;;;;;4.13;3.40;;;;;;;23.15;55.16;100200.88;4139431;28;20045;-68
2023/06/19 03:40:28;;;;;;;5.45;4.22;;;;;;;23.17;55.46;100208.75;4128296;28;20042;-67
2023/06/19 03:42:37;;;;;;;4.70;3.45;;;;;;;23.18;55.40;100210.50;4124329;28;20034;-68
2023/06/19 03:44:41;;;;;;;4.80;3.38;;;;;;;22.99;55.80;100213.88;4127921;28;20066;-68
2023/06/19 03:46:44;;;;;;;4.50;3.08;;;;;;;22.92;56.33;100214.19;4140532;28;20124;-67
2023/06/19 03:48:48;;;;;;;4.80;3.53;;;;;;;23.02;55.37;100221.69;4140540;28;20207;-60
2023/06/19 03:50:51;;;;;;;7.00;3.67;;;;;;;23.06;55.93;100221.59;4126597;28;20492;-60
2023/06/19 03:52:55;;;;;;;6.40;3.10;;;;;;;22.98;56.22;100216.59;4127764;28;20031;-60
2023/06/19 03:54:58;;;;;;;5.70;3.03;;;;;;;22.91;56.25;100212.47;4142451;28;20119;-60
2023/06/19 03:57:01;;;;;;;4.68;3.13;;;;;;;22.94;56.34;100209.69;4109120;28;20047;-60
2023/06/19 03:59:04;;;;;;;5.13;3.38;;;;;;;23.11;56.49;100204.56;4143510;28;20034;-60
2023/06/19 04:01:07;;;;;;;7.93;3.05;;;;;;;23.14;55.95;100209.78;4111329;28;20043;-60
2023/06/19 04:03:10;;;;;;;4.72;3.05;;;;;;;23.13;56.21;100212.44;4127187;28;20516;-60
2023/06/19 04:05:15;;;;;;;7.57;3.20;;;;;;;23.00;56.07;100215.59;4111176;28;20571;-60
2023/06/19 04:07:18;;;;;;;6.65;4.22;;;;;;;23.15;56.66;100215.94;4126553;28;20528;-61
2023/06/19 04:09:23;;;;;;;4.65;3.10;;;;;;;23.08;56.37;100219.72;4129261;28;20504;-60
2023/06/19 04:11:26;;;;;;;5.38;3.28;;;;;;;22.99;56.26;100211.22;4132261;28;20064;-60
2023/06/19 04:13:29;;;;;;;3.33;2.92;;;;;;;22.89;56.44;100215.16;4115045;28;20058;-60
2023/06/19 04:15:32;;;;;;;6.60;3.38;;;;;;;22.82;56.69;100209.28;4113561;28;20599;-61
2023/06/19 04:17:35;;;;;;;7.35;2.92;;;;;;;22.94;56.27;100212.31;4129162;28;20054;-60
2023/06/19 04:19:38;;;;;;;5.78;3.25;;;;;;;22.97;56.27;100210.44;4130366;28;20042;-60
2023/06/19 04:21:41;;;;;;;6.30;3.35;;;;;;;23.04;55.96;100218.13;4129716;28;20045;-60
2023/06/19 04:23:44;;;;;;;6.40;3.58;;;;;;;22.90;56.23;100216.91;4142577;28;20495;-61
2023/06/19 04:25:49;;;;;;;7.15;3.28;;;;;;;22.85;55.98;100229.47;4127625;28;20093;-61
2023/06/19 04:27:52;;;;;;;3.65;3.03;;;;;;;22.87;56.21;100221.44;4128602;28;20460;-61
2023/06/19 04:29:55;;;;;;;5.32;3.47;;;;;;;22.85;56.31;100229.47;4130228;28;20042;-61
2023/06/19 04:31:58;;;;;;;6.43;3.15;;;;;;;22.87;56.19;100225.00;4130624;28;20038;-61
2023/06/19 04:34:04;;;;;;;4.25;3.45;;;;;;;22.98;55.70;100230.72;4130484;28;20034;-61
2023/06/19 04:36:09;;;;;;;4.75;3.25;;;;;;;22.98;55.84;100222.78;4131504;28;20459;-61
2023/06/19 04:38:14;;;;;;;4.10;3.13;;;;;;;23.04;55.55;100234.03;4128222;28;20034;-61
2023/06/19 04:40:17;;;;;;;3.60;2.75;;;;;;;23.00;55.56;100236.81;4130492;28;20579;-61
2023/06/19 04:42:21;;;;;;;4.53;3.35;;;;;;;22.97;55.41;100229.00;4129185;28;20096;-61
2023/06/19 04:44:24;;;;;;;3.75;2.65;;;;;;;22.93;55.61;100239.78;4130288;28;20034;-61
2023/06/19 04:46:27;;;;;;;3.58;2.78;;;;;;;22.91;55.62;100242.50;4146531;28;20508;-61
2023/06/19 04:48:30;;;;;;;4.32;2.97;;;;;;;22.99;55.57;100239.53;4130378;28;20084;-61
2023/06/19 04:50:33;;;;;;;3.97;2.78;;;;;;;23.04;55.45;100239.34;4131072;28;20050;-61
2023/06/19 04:52:37;;;;;;;4.72;3.17;;;;;;;23.12;55.36;100242.56;4130333;28;20042;-61
2023/06/19 04:54:40;;;;;;;5.32;3.25;;;;;;;23.04;55.43;100244.63;4130209;28;20502;-61
2023/06/19 04:56:45;;;;;;;4.70;2.97;;;;;;;23.14;55.67;100249.53;4126524;28;20054;-61
2023/06/19 04:58:51;;;;;;;6.70;2.80;;;;;;;23.14;55.29;100246.91;4131426;28;20045;-61
2023/06/19 05:00:54;;;;;;;3.90;2.72;;;;;;;23.22;54.95;100238.59;4128368;28;20074;-61
2023/06/19 05:03:00;;;;;;;4.80;2.97;;;;;;;23.25;55.26;100238.47;4130391;28;20490;-61
2023/06/19 05:05:03;;;;;;;5.70;2.95;;;;;;;23.28;55.33;100250.75;4132410;28;20088;-61
2023/06/19 05:07:07;;;;;;;7.10;2.90;;;;;;;23.51;55.01;100249.78;4126879;28;20049;-61
2023/06/19 05:09:10;;;;;;;4.00;3.20;;;;;;;23.51;54.26;100249.78;4143716;28;20137;-61
2023/06/19 05:11:13;;;;;;;5.55;3.08;;;;;;;23.46;54.23;100243.78;4132878;28;20034;-61
2023/06/19 05:13:18;;;;;;;3.65;2.63;;;;;;;23.46;54.19;100246.44;4131273;28;20439;-61
2023/06/19 05:15:22;;;;;;;4.28;2.28;;;;;;;23.47;54.78;100248.19;4124129;28;20050;-61
2023/06/19 05:17:25;;;;;;;4.10;3.00;;;;;;;23.55;54.43;100250.50;4132707;28;20557;-61
2023/06/19 05:19:28;;;;;;;5.35;3.13;;;;;;;23.63;53.90;100249.25;4131065;28;20122;-61
2023/06/19 05:21:31;;;;;;;6.32;3.13;;;;;;;23.55;54.12;100256.66;4133265;28;20038;-61
2023/06/19 05:23:35;;;;;;;3.63;2.72;;;;;;;23.57;54.09;100257.47;4125625;28;20032;-61
2023/06/19 05:25:37;;;;;;;3.03;2.40;;;;;;;23.55;54.22;100255.81;4130546;28;20099;-61
2023/06/19 05:27:40;;;;;;;3.53;2.33;;;;;;;23.59;54.12;100252.09;4133452;28;20046;-62
2023/06/19 05:29:43;;;;;;;2.95;2.35;;;;;;;23.63;54.20;100251.03;4130951;28;20066;-61
2023/06/19 05:31:47;;;;;;;4.30;2.83;;;;;;;23.68;54.06;100252.56;4130325;28;20069;-61
2023/06/19 05:34:20;;;;;;;3.15;2.40;;;;;;;23.64;54.21;100256.28;4128520;28;20347;-61
2023/06/19 05:36:23;;;;;;;5.88;3.05;;;;;;;23.58;54.41;100253.88;4131730;28;20050;-61
2023/06/19 05:38:28;;;;;;;3.30;2.38;;;;;;;23.55;54.51;100258.47;4129293;28;20404;-62
2023/06/19 05:40:30;;;;;;;;;;;;;;;23.48;54.72;100260.50;4131213;28;20113;-61
2023/06/19 05:42:34;;;;;;;4.35;2.90;;;;;;;23.55;54.80;100256.66;4130774;28;20025;-61
2023/06/19 05:44:36;;;;;;;4.35;3.00;;;;;;;23.61;54.68;100267.03;4131664;28;20048;-61
2023/06/19 05:50:09;;;;;;;4.18;2.92;;;;;;;23.68;54.47;100262.31;4123089;28;20054;-61
2023/06/19 05:52:12;;;;;;;4.88;3.10;;;;;;;23.76;54.32;100259.31;4131096;28;20042;-71
2023/06/19 05:54:17;;;;;;;4.65;2.80;;;;;;;23.82;54.29;100267.88;4128991;28;20132;-70
2023/06/19 05:56:20;;;;;;;5.18;3.10;;;;;;;24.01;54.10;100267.94;4129104;28;20080;-66
2023/06/19 05:58:25;;;;;;;4.60;2.85;;;;;;;24.08;53.71;100271.19;4124334;28;20132;-65
2023/06/19 06:00:29;;;;;;;3.97;2.80;;;;;;;24.17;53.59;100275.25;4130489;28;20038;-65
2023/06/19 06:02:32;;;;;;;4.47;2.70;;;;;;;24.14;53.84;100270.91;4130966;28;20448;-65
2023/06/19 06:04:36;;;;;;;8.00;3.42;;;;;;;24.27;53.66;100279.19;4128034;28;20488;-65
2023/06/19 06:06:40;;;;;;;5.65;3.55;;;;;;;24.17;53.73;100275.25;4129205;28;20069;-65
2023/06/19 06:08:43;;;;;;;7.63;3.40;;;;;;;24.10;54.05;100273.78;4130590;28;20049;-65
2023/06/19 06:10:46;;;;;;;4.50;2.80;;;;;;;24.18;54.13;100271.63;4131276;28;20488;-66
2023/06/19 06:12:49;;;;;;;7.70;3.00;;;;;;;24.25;53.99;100282.84;4130234;28;20496;-65
2023/06/19 06:14:52;;;;;;;4.70;2.78;;;;;;;24.33;53.81;100280.72;4112675;28;20047;-66
2023/06/19 06:16:55;;;;;;;8.15;3.20;;;;;;;24.40;53.67;100269.72;4130593;28;20646;-65
2023/06/19 06:18:58;;;;;;;6.50;3.00;;;;;;;24.43;53.37;100275.81;4130497;28;20085;-65
2023/06/19 06:21:01;;;;;;;4.68;2.78;;;;;;;24.36;53.53;100280.56;4130296;28;20101;-66
2023/06/19 06:23:06;;;;;;;4.57;2.88;;;;;;;24.38;53.73;100290.16;4129286;28;20065;-65
2023/06/19 06:25:11;;;;;;;4.82;3.15;;;;;;;24.46;53.51;100283.63;4129122;28;20066;-66
2023/06/19 06:27:16;;;;;;;5.35;3.53;;;;;;;24.48;53.12;100279.97;4130222;28;20381;-66
2023/06/19 06:29:19;;;;;;;6.68;3.63;;;;;;;24.60;53.19;100277.72;4130648;28;20074;-65
2023/06/19 06:31:23;;;;;;;5.10;3.35;;;;;;;24.72;53.06;100266.50;4128452;28;20070;-66
2023/06/19 06:33:26;;;;;;;;;;;;;;;24.77;52.84;100275.13;4128294;28;20479;-66
2023/06/19 06:35:29;;;;;;;5.80;4.00;;;;;;;24.87;52.45;100271.09;4144832;28;20012;-66
2023/06/19 06:37:31;;;;;;;5.28;3.47;;;;;;;24.78;52.70;100270.66;4130150;28;20125;-66
2023/06/19 06:39:36;;;;;;;5.43;3.83;;;;;;;24.95;52.76;100278.69;4145383;28;20161;-66
2023/06/19 06:41:38;;;;;;;;;;;;;;;24.92;52.91;100284.16;4130268;28;20056;-66
2023/06/19 06:43:42;;;;;;;12.27;3.47;;;;;;;25.00;52.87;100281.13;4129945;28;19922;-66
2023/06/19 06:45:45;;;;;;;3.53;3.15;;;;;;;25.01;53.17;100289.00;4128588;28;20077;-66
2023/06/19 06:47:48;;;;;;;4.80;3.50;;;;;;;25.11;52.57;100285.94;4127888;28;20058;-66
2023/06/19 06:49:51;;;;;;;4.85;3.17;;;;;;;25.17;52.65;100289.13;4128051;28;20378;-66
2023/06/19 06:51:54;;;;;;;6.10;3.80;;;;;;;25.18;52.40;100287.34;4128730;28;20125;-66
2023/06/19 06:53:59;;;;;;;6.85;4.45;;;;;;;25.25;52.38;100288.78;4126363;28;20038;-65
2023/06/19 06:56:04;;;;;;;6.93;4.15;;;;;;;25.30;51.86;100286.72;4130506;28;20065;-65
2023/06/19 06:58:07;;;;;;;6.80;3.90;;;;;;;25.25;51.61;100283.44;4130823;28;20077;-65
2023/06/19 07:00:11;;;;;;;7.60;4.07;;;;;;;25.33;51.56;100283.09;4129676;28;20039;-65
2023/06/19 07:02:14;;;;;;;7.25;4.72;;;;;;;25.44;51.48;100286.94;4130364;28;20057;-66
2023/06/19 07:04:17;;;;;;;6.13;3.67;;;;;;;25.28;52.11;100296.59;4131332;28;20104;-65
2023/06/19 07:06:20;;;;;;;4.50;3.42;;;;;;;25.39;51.58;100296.97;4131889;28;20125;-65
2023/06/19 07:08:23;;;;;;;6.13;5.20;;;;;;;25.41;51.44;100304.88;4129858;28;20054;-65
2023/06/19 07:10:26;;;;;;;5.43;4.75;;;;;;;25.44;51.29;100294.91;4130108;28;20045;-65
2023/06/19 07:12:31;;;;;;;4.55;4.10;;;;;;;25.60;50.84;100297.66;4144706;28;20042;-65
2023/06/19 07:14:34;;;;;;;;;;;;;;;25.58;50.90;100298.66;4131748;28;20045;-65
2023/06/19 07:16:37;;;;;;;14.20;6.05;;;;;;;25.58;50.97;100304.88;4131050;28;20380;-65
2023/06/19 07:18:41;;;;;;;12.55;4.47;;;;;;;25.68;50.70;100309.72;4131282;28;20042;-66
2023/06/19 07:20:44;;;;;;;5.38;3.60;;;;;;;25.87;50.48;100315.81;4129334;28;20035;-66
2023/06/19 07:22:47;;;;;;;7.43;4.47;;;;;;;25.97;50.31;100316.19;4131159;28;20146;-66
2023/06/19 07:24:50;;;;;;;6.28;4.70;;;;;;;26.03;50.21;100326.56;4131003;28;20121;-66
2023/06/19 07:26:53;;;;;;;7.45;4.07;;;;;;;25.85;50.72;100323.03;4116809;28;20054;-66
2023/06/19 07:28:57;;;;;;;7.25;4.15;;;;;;;25.91;50.12;100314.72;4131469;28;20062;-66
2023/06/19 07:31:00;;;;;;;9.45;4.05;;;;;;;25.79;50.72;100324.19;4130174;28;20045;-66
2023/06/19 07:33:03;;;;;;;7.80;4.20;;;;;;;25.94;50.79;100324.34;4145653;28;20499;-66
2023/06/19 07:35:07;;;;;;;5.55;4.35;;;;;;;25.99;50.48;100324.94;4130229;28;20065;-66
2023/06/19 07:37:10;;;;;;;;;;;;;;;26.23;50.08;100327.31;4131127;28;20065;-65
2023/06/19 07:39:13;;;;;;;6.78;5.38;;;;;;;26.05;50.33;100323.81;4131452;28;19945;-65
2023/06/19 07:41:16;;;;;;;6.75;4.57;;;;;;;26.04;51.20;100327.44;4130388;28;20086;-65
2023/06/19 07:43:18;;;;;;;5.97;4.80;;;;;;;26.13;50.75;100325.13;4121978;28;20502;-65
2023/06/19 07:45:23;;;;;;;6.38;4.60;;;;;;;26.22;50.82;100328.25;4128264;28;20081;-66
2023/06/19 07:47:27;;;;;;;7.00;4.88;;;;;;;26.36;50.03;100325.72;4131186;28;20057;-65
2023/06/19 07:49:30;;;;;;;;;;;;;;;26.16;50.24;100334.75;4170841;23;20096;-73
2023/06/19 07:51:33;;;;;;;7.40;3.72;;;;;;;26.12;50.90;100335.88;4142136;28;19921;-72
2023/06/19 07:53:36;;;;;;;7.82;4.43;;;;;;;26.13;51.03;100338.44;4157933;28;20125;-72
2023/06/19 07:55:39;;;;;;;7.60;4.40;;;;;;;26.01;51.62;100352.41;4161467;28;20065;-72
2023/06/19 07:57:41;;;;;;;7.68;4.82;;;;;;;25.98;51.28;100347.22;4135066;28;20045;-72
2023/06/19 07:59:44;;;;;;;11.05;5.38;;;;;;;25.73;51.78;100350.25;4128962;28;20484;-72
2023/06/19 08:01:49;;;;;;;12.30;6.30;;;;;;;25.58;52.68;100363.44;4123739;28;20039;-72
2023/06/19 08:03:52;;;;;;;8.88;5.57;;;;;;;25.58;52.04;100354.56;4142039;28;20526;-73
2023/06/19 08:05:55;;;;;;;9.70;4.28;;;;;;;25.55;52.40;100363.59;4130956;28;20034;-72
2023/06/19 08:07:59;;;;;;;11.55;5.07;;;;;;;25.70;51.98;100356.63;4125928;28;20038;-72
2023/06/19 08:10:03;;;;;;;9.93;4.38;;;;;;;25.48;52.51;100361.28;4144845;28;20492;-72
2023/06/19 08:12:16;;;;;;;8.23;5.13;;;;;;;25.47;52.54;100354.28;4145739;28;20053;-72
2023/06/19 08:14:18;;;;;;;10.27;4.95;;;;;;;25.30;52.66;100371.88;4145906;28;20500;-71
2023/06/19 08:16:21;;;;;;;8.48;4.43;;;;;;;25.23;53.01;100359.81;4125098;28;20451;-72
2023/06/19 08:18:25;;;;;;;6.15;4.43;;;;;;;25.01;53.76;100381.25;4121231;28;20050;-72
2023/06/19 08:20:30;;;;;;;7.40;4.78;;;;;;;25.06;53.29;100372.13;4124494;28;20070;-71
2023/06/19 08:22:33;;;;;;;11.40;5.50;;;;;;;25.02;53.56;100375.88;4120179;28;20455;-72
2023/06/19 08:24:38;;;;;;;8.82;5.40;;;;;;;24.95;53.54;100382.41;4125316;28;20087;-72
2023/06/19 08:26:41;;;;;;;11.00;6.55;;;;;;;25.00;53.46;100385.72;4122387;28;20042;-74
2023/06/19 08:28:44;;;;;;;6.78;4.88;;;;;;;24.83;53.82;100383.00;4119383;28;20397;-72
2023/06/19 08:30:47;;;;;;;7.88;4.63;;;;;;;25.02;53.56;100375.88;4126072;28;20042;-72
2023/06/19 08:32:50;;;;;;;25.50;6.25;;;;;;;25.13;53.42;100383.34;4123754;28;20046;-71
2023/06/19 08:34:54;;;;;;;6.80;4.32;;;;;;;25.11;53.39;100385.19;4124404;28;20574;-72
2023/06/19 08:37:00;;;;;;;9.98;5.10;;;;;;;25.18;53.67;100385.78;4126669;28;20510;-72
2023/06/19 08:39:04;;;;;;;8.68;4.65;;;;;;;25.21;53.46;100388.28;4133393;28;20106;-72
2023/06/19 08:41:07;;;;;;;8.55;4.85;;;;;;;25.37;53.09;100381.31;4126672;28;20069;-72
2023/06/19 08:43:11;;;;;;;6.78;4.60;;;;;;;25.51;52.75;100380.66;4126141;28;20058;-72
2023/06/19 08:45:13;;;;;;;6.35;5.03;;;;;;;25.59;52.55;100385.59;4132454;28;20042;-72
2023/06/19 08:47:18;;;;;;;5.65;4.38;;;;;;;25.66;52.19;100381.69;4115902;28;20048;-72
2023/06/19 08:49:21;;;;;;;40.50;8.52;;;;;;;25.85;52.38;100372.78;4119126;28;20046;-72
2023/06/19 08:51:27;;;;;;;22.83;5.88;;;;;;;26.20;51.40;100380.78;4130395;28;20546;-72
2023/06/19 08:53:29;;;;;;;6.80;4.53;;;;;;;26.24;51.40;100387.66;4145171;28;20333;-72
2023/06/19 08:55:33;;;;;;;343.50;23.08;;;;;;;26.40;51.51;100393.91;4125941;28;20568;-72
2023/06/19 08:57:38;;;;;;;16.80;4.80;;;;;;;26.32;52.25;100392.59;4131013;28;20101;-72
2023/06/19 08:59:48;;;;;;;8.10;4.47;;;;;;;26.15;51.41;100388.13;4133004;28;20468;-72
2023/06/19 09:01:53;;;;;;;9.52;4.88;;;;;;;25.96;51.70;100395.25;4122367;28;20408;-73
2023/06/19 09:04:09;;;;;;;8.35;4.95;;;;;;;25.75;51.71;100394.53;4133814;28;20042;-73
2023/06/19 09:06:15;;;;;;;9.90;4.32;;;;;;;25.74;52.15;100399.94;4122205;28;20050;-72
2023/06/19 09:08:21;;;;;;;40.60;7.72;;;;;;;25.82;52.44;100386.22;4123458;28;20053;-72
2023/06/19 09:10:27;;;;;;;20.75;5.70;;;;;;;25.90;52.67;100397.34;4139466;28;20527;-72
2023/06/19 09:12:31;;;;;;;11.38;4.80;;;;;;;25.93;52.65;100389.19;4137225;28;20046;-72
2023/06/19 09:14:39;;;;;;;11.68;4.72;;;;;;;26.07;52.49;100385.88;4126932;28;20088;-70
2023/06/19 09:16:43;;;;;;;9.93;4.72;;;;;;;26.17;51.63;100386.25;4128504;28;20035;-72
2023/06/19 09:18:47;;;;;;;8.60;4.45;;;;;;;26.11;51.87;100390.97;4131664;28;20530;-72
2023/06/19 09:20:54;;;;;;;5.97;4.30;;;;;;;26.09;51.85;100394.66;4135140;28;20034;-72
2023/06/19 09:22:57;;;;;;;5.55;4.30;;;;;;;26.07;51.31;100388.53;4136117;28;20035;-73
2023/06/19 09:25:03;;;;;;;18.30;6.95;;;;;;;26.26;51.03;100388.44;4122874;28;20408;-72
2023/06/19 09:27:08;;;;;;;5.70;4.32;;;;;;;26.35;51.21;100377.28;4117131;28;20038;-72
2023/06/19 09:29:12;;;;;;;5.30;4.28;;;;;;;26.57;50.74;100385.00;4128462;28;20041;-72
2023/06/19 09:31:19;;;;;;;10.90;4.30;;;;;;;26.85;50.51;100380.00;4127163;28;20046;-72
2023/06/19 09:33:21;;;;;;;7.07;4.22;;;;;;;26.99;49.35;100386.28;4143491;28;20048;-75
2023/06/19 09:35:25;;;;;;;7.70;4.90;;;;;;;27.13;48.94;100376.66;4134097;28;20042;-72
2023/06/19 09:37:34;;;;;;;9.45;4.65;;;;;;;27.29;48.83;100373.97;4128656;28;20038;-72
2023/06/19 09:39:40;;;;;;;8.20;4.82;;;;;;;27.54;48.55;100376.13;4142529;28;20042;-73
2023/06/19 09:41:51;;;;;;;5.85;4.50;;;;;;;27.64;48.69;100381.78;4143581;28;20034;-73